sensor_id;sensor_type;location;lat;lon;timestamp;P1;durP1;ratioP1;P2;durP2;ratioP2
59970;SDS011;45825;45.434;9.116;2024-01-25T00:00:40;54.90;;;35.25;;
59970;SDS011;45825;45.434;9.116;2024-01-25T00:03:05;52.42;;;36.28;;
59970;SDS011;45825;45.434;9.116;2024-01-25T00:05:30;54.83;;;37.55;;
59970;SDS011;45825;45.434;9.116;2024-01-25T00:07:56;62.25;;;38.03;;
59970;SDS011;45825;45.434;9.116;2024-01-25T00:10:21;50.47;;;36.55;;
59970;SDS011;45825;45.434;9.116;2024-01-25T00:12:47;57.15;;;37.20;;
59970;SDS011;45825;45.434;9.116;2024-01-25T00:15:12;59.00;;;38.05;;
59970;SDS011;45825;45.434;9.116;2024-01-25T00:17:38;58.13;;;38.25;;
59970;SDS011;45825;45.434;9.116;2024-01-25T00:20:03;61.17;;;40.88;;
59970;SDS011;45825;45.434;9.116;2024-01-25T00:22:30;58.40;;;39.33;;
59970;SDS011;45825;45.434;9.116;2024-01-25T00:24:55;58.70;;;39.15;;
59970;SDS011;45825;45.434;9.116;2024-01-25T00:27:20;58.72;;;38.60;;
59970;SDS011;45825;45.434;9.116;2024-01-25T00:29:46;56.70;;;38.03;;
59970;SDS011;45825;45.434;9.116;2024-01-25T00:32:11;58.60;;;38.60;;
59970;SDS011;45825;45.434;9.116;2024-01-25T00:34:37;58.17;;;38.33;;
59970;SDS011;45825;45.434;9.116;2024-01-25T00:37:02;53.35;;;36.72;;
59970;SDS011;45825;45.434;9.116;2024-01-25T00:39:28;54.83;;;37.78;;
59970;SDS011;45825;45.434;9.116;2024-01-25T00:41:54;54.35;;;37.92;;
59970;SDS011;45825;45.434;9.116;2024-01-25T00:44:28;59.30;;;41.10;;
59970;SDS011;45825;45.434;9.116;2024-01-25T00:46:54;59.75;;;37.70;;
59970;SDS011;45825;45.434;9.116;2024-01-25T00:49:19;52.15;;;35.55;;
59970;SDS011;45825;45.434;9.116;2024-01-25T00:51:46;59.35;;;38.80;;
59970;SDS011;45825;45.434;9.116;2024-01-25T00:54:13;56.00;;;36.67;;
59970;SDS011;45825;45.434;9.116;2024-01-25T00:56:41;52.90;;;35.90;;
59970;SDS011;45825;45.434;9.116;2024-01-25T00:59:07;53.85;;;37.67;;
59970;SDS011;45825;45.434;9.116;2024-01-25T01:01:32;53.50;;;36.72;;
59970;SDS011;45825;45.434;9.116;2024-01-25T01:03:58;54.35;;;35.35;;
59970;SDS011;45825;45.434;9.116;2024-01-25T01:06:24;53.42;;;35.47;;
59970;SDS011;45825;45.434;9.116;2024-01-25T01:08:50;54.90;;;36.08;;
59970;SDS011;45825;45.434;9.116;2024-01-25T01:11:16;53.80;;;36.33;;
59970;SDS011;45825;45.434;9.116;2024-01-25T01:13:42;55.85;;;36.47;;
59970;SDS011;45825;45.434;9.116;2024-01-25T01:16:07;48.72;;;34.78;;
59970;SDS011;45825;45.434;9.116;2024-01-25T01:18:33;53.45;;;35.13;;
59970;SDS011;45825;45.434;9.116;2024-01-25T01:20:58;50.28;;;34.85;;
59970;SDS011;45825;45.434;9.116;2024-01-25T01:23:23;49.97;;;34.95;;
59970;SDS011;45825;45.434;9.116;2024-01-25T01:25:48;50.35;;;35.78;;
59970;SDS011;45825;45.434;9.116;2024-01-25T01:28:14;54.03;;;35.00;;
59970;SDS011;45825;45.434;9.116;2024-01-25T01:30:39;53.92;;;34.90;;
59970;SDS011;45825;45.434;9.116;2024-01-25T01:33:10;51.42;;;35.15;;
59970;SDS011;45825;45.434;9.116;2024-01-25T01:35:36;52.78;;;35.05;;
59970;SDS011;45825;45.434;9.116;2024-01-25T01:38:01;53.45;;;35.00;;
59970;SDS011;45825;45.434;9.116;2024-01-25T01:40:27;51.13;;;34.08;;
59970;SDS011;45825;45.434;9.116;2024-01-25T01:42:58;50.70;;;34.92;;
59970;SDS011;45825;45.434;9.116;2024-01-25T01:45:24;48.42;;;33.60;;
59970;SDS011;45825;45.434;9.116;2024-01-25T01:47:49;50.75;;;33.75;;
59970;SDS011;45825;45.434;9.116;2024-01-25T01:50:15;49.50;;;34.92;;
59970;SDS011;45825;45.434;9.116;2024-01-25T01:52:40;50.92;;;34.60;;
59970;SDS011;45825;45.434;9.116;2024-01-25T01:55:07;52.50;;;35.03;;
59970;SDS011;45825;45.434;9.116;2024-01-25T01:57:33;46.83;;;34.58;;
59970;SDS011;45825;45.434;9.116;2024-01-25T01:59:59;52.80;;;35.10;;
59970;SDS011;45825;45.434;9.116;2024-01-25T02:02:29;51.20;;;35.03;;
59970;SDS011;45825;45.434;9.116;2024-01-25T02:04:54;52.30;;;34.25;;
59970;SDS011;45825;45.434;9.116;2024-01-25T02:07:19;50.50;;;33.85;;
59970;SDS011;45825;45.434;9.116;2024-01-25T02:09:45;50.30;;;33.80;;
59970;SDS011;45825;45.434;9.116;2024-01-25T02:12:10;48.38;;;34.17;;
59970;SDS011;45825;45.434;9.116;2024-01-25T02:14:35;50.95;;;34.03;;
59970;SDS011;45825;45.434;9.116;2024-01-25T02:17:01;52.33;;;34.67;;
59970;SDS011;45825;45.434;9.116;2024-01-25T02:19:26;50.38;;;33.97;;
59970;SDS011;45825;45.434;9.116;2024-01-25T02:21:51;47.95;;;33.90;;
59970;SDS011;45825;45.434;9.116;2024-01-25T02:24:19;52.03;;;34.03;;
59970;SDS011;45825;45.434;9.116;2024-01-25T02:26:44;49.05;;;33.97;;
59970;SDS011;45825;45.434;9.116;2024-01-25T02:29:10;47.90;;;33.67;;
59970;SDS011;45825;45.434;9.116;2024-01-25T02:31:36;47.72;;;32.53;;
59970;SDS011;45825;45.434;9.116;2024-01-25T02:34:01;44.45;;;32.00;;
59970;SDS011;45825;45.434;9.116;2024-01-25T02:36:26;46.17;;;32.45;;
59970;SDS011;45825;45.434;9.116;2024-01-25T02:38:52;49.58;;;33.92;;
59970;SDS011;45825;45.434;9.116;2024-01-25T02:41:17;52.10;;;34.75;;
59970;SDS011;45825;45.434;9.116;2024-01-25T02:43:42;48.90;;;33.88;;
59970;SDS011;45825;45.434;9.116;2024-01-25T02:46:07;51.97;;;35.10;;
59970;SDS011;45825;45.434;9.116;2024-01-25T02:48:34;49.15;;;35.85;;
59970;SDS011;45825;45.434;9.116;2024-01-25T02:50:59;49.22;;;36.03;;
59970;SDS011;45825;45.434;9.116;2024-01-25T02:53:24;54.15;;;36.75;;
59970;SDS011;45825;45.434;9.116;2024-01-25T02:55:50;59.05;;;38.88;;
59970;SDS011;45825;45.434;9.116;2024-01-25T02:58:15;59.45;;;38.80;;
59970;SDS011;45825;45.434;9.116;2024-01-25T03:00:40;56.50;;;38.13;;
59970;SDS011;45825;45.434;9.116;2024-01-25T03:03:06;54.88;;;38.65;;
59970;SDS011;45825;45.434;9.116;2024-01-25T03:05:31;57.03;;;37.75;;
59970;SDS011;45825;45.434;9.116;2024-01-25T03:07:56;61.63;;;42.55;;
59970;SDS011;45825;45.434;9.116;2024-01-25T03:10:22;57.65;;;41.17;;
59970;SDS011;45825;45.434;9.116;2024-01-25T03:12:48;58.05;;;41.08;;
59970;SDS011;45825;45.434;9.116;2024-01-25T03:15:13;57.65;;;41.45;;
59970;SDS011;45825;45.434;9.116;2024-01-25T03:17:40;63.42;;;46.70;;
59970;SDS011;45825;45.434;9.116;2024-01-25T03:20:05;64.68;;;46.28;;
59970;SDS011;45825;45.434;9.116;2024-01-25T03:22:31;66.95;;;46.50;;
59970;SDS011;45825;45.434;9.116;2024-01-25T03:24:56;62.85;;;46.80;;
59970;SDS011;45825;45.434;9.116;2024-01-25T03:27:21;65.20;;;47.45;;
59970;SDS011;45825;45.434;9.116;2024-01-25T03:29:47;68.25;;;49.45;;
59970;SDS011;45825;45.434;9.116;2024-01-25T03:32:12;70.70;;;52.45;;
59970;SDS011;45825;45.434;9.116;2024-01-25T03:34:37;71.10;;;52.25;;
59970;SDS011;45825;45.434;9.116;2024-01-25T03:37:03;72.18;;;54.90;;
59970;SDS011;45825;45.434;9.116;2024-01-25T03:39:28;72.47;;;52.15;;
59970;SDS011;45825;45.434;9.116;2024-01-25T03:41:54;77.25;;;54.00;;
59970;SDS011;45825;45.434;9.116;2024-01-25T03:44:19;74.60;;;53.80;;
59970;SDS011;45825;45.434;9.116;2024-01-25T03:46:44;71.72;;;54.00;;
59970;SDS011;45825;45.434;9.116;2024-01-25T03:49:10;79.70;;;57.65;;
59970;SDS011;45825;45.434;9.116;2024-01-25T03:51:35;81.93;;;58.45;;
59970;SDS011;45825;45.434;9.116;2024-01-25T03:54:02;82.57;;;57.95;;
59970;SDS011;45825;45.434;9.116;2024-01-25T03:56:27;80.03;;;58.53;;
59970;SDS011;45825;45.434;9.116;2024-01-25T03:58:53;76.57;;;57.47;;
59970;SDS011;45825;45.434;9.116;2024-01-25T04:01:18;80.35;;;58.38;;
59970;SDS011;45825;45.434;9.116;2024-01-25T04:03:43;80.60;;;59.90;;
59970;SDS011;45825;45.434;9.116;2024-01-25T04:06:09;80.88;;;57.88;;
59970;SDS011;45825;45.434;9.116;2024-01-25T04:08:34;81.13;;;59.88;;
59970;SDS011;45825;45.434;9.116;2024-01-25T04:10:59;84.00;;;60.03;;
59970;SDS011;45825;45.434;9.116;2024-01-25T04:13:25;82.03;;;59.25;;
59970;SDS011;45825;45.434;9.116;2024-01-25T04:15:50;83.85;;;59.95;;
59970;SDS011;45825;45.434;9.116;2024-01-25T04:18:16;84.03;;;60.13;;
59970;SDS011;45825;45.434;9.116;2024-01-25T04:20:41;84.57;;;59.40;;
59970;SDS011;45825;45.434;9.116;2024-01-25T04:23:08;82.82;;;59.80;;
59970;SDS011;45825;45.434;9.116;2024-01-25T04:25:33;83.72;;;60.33;;
59970;SDS011;45825;45.434;9.116;2024-01-25T04:27:59;82.22;;;59.63;;
59970;SDS011;45825;45.434;9.116;2024-01-25T04:30:25;82.53;;;60.08;;
59970;SDS011;45825;45.434;9.116;2024-01-25T04:32:50;82.07;;;59.38;;
59970;SDS011;45825;45.434;9.116;2024-01-25T04:35:15;84.38;;;61.95;;
59970;SDS011;45825;45.434;9.116;2024-01-25T04:37:41;87.10;;;62.70;;
59970;SDS011;45825;45.434;9.116;2024-01-25T04:40:06;87.25;;;63.00;;
59970;SDS011;45825;45.434;9.116;2024-01-25T04:42:32;90.50;;;64.45;;
59970;SDS011;45825;45.434;9.116;2024-01-25T04:44:58;86.90;;;63.78;;
59970;SDS011;45825;45.434;9.116;2024-01-25T04:47:23;87.70;;;61.65;;
59970;SDS011;45825;45.434;9.116;2024-01-25T04:49:48;86.28;;;63.30;;
59970;SDS011;45825;45.434;9.116;2024-01-25T04:52:14;86.95;;;59.95;;
59970;SDS011;45825;45.434;9.116;2024-01-25T04:54:39;83.72;;;61.40;;
59970;SDS011;45825;45.434;9.116;2024-01-25T04:57:04;85.90;;;62.83;;
59970;SDS011;45825;45.434;9.116;2024-01-25T04:59:32;87.57;;;62.65;;
59970;SDS011;45825;45.434;9.116;2024-01-25T05:01:58;87.45;;;62.45;;
59970;SDS011;45825;45.434;9.116;2024-01-25T05:04:24;85.93;;;63.38;;
59970;SDS011;45825;45.434;9.116;2024-01-25T05:06:49;87.82;;;63.72;;
59970;SDS011;45825;45.434;9.116;2024-01-25T05:09:14;88.22;;;64.38;;
59970;SDS011;45825;45.434;9.116;2024-01-25T05:11:40;88.88;;;64.35;;
59970;SDS011;45825;45.434;9.116;2024-01-25T05:14:05;91.20;;;63.75;;
59970;SDS011;45825;45.434;9.116;2024-01-25T05:16:31;91.63;;;66.35;;
59970;SDS011;45825;45.434;9.116;2024-01-25T05:18:57;89.28;;;64.65;;
59970;SDS011;45825;45.434;9.116;2024-01-25T05:21:22;95.00;;;64.78;;
59970;SDS011;45825;45.434;9.116;2024-01-25T05:23:47;92.32;;;64.70;;
59970;SDS011;45825;45.434;9.116;2024-01-25T05:26:12;90.25;;;63.70;;
59970;SDS011;45825;45.434;9.116;2024-01-25T05:28:38;92.72;;;65.18;;
59970;SDS011;45825;45.434;9.116;2024-01-25T05:31:03;91.07;;;68.03;;
59970;SDS011;45825;45.434;9.116;2024-01-25T05:33:28;93.15;;;65.95;;
59970;SDS011;45825;45.434;9.116;2024-01-25T05:35:54;96.30;;;64.38;;
59970;SDS011;45825;45.434;9.116;2024-01-25T05:38:19;99.45;;;67.25;;
59970;SDS011;45825;45.434;9.116;2024-01-25T05:40:44;97.32;;;67.57;;
59970;SDS011;45825;45.434;9.116;2024-01-25T05:43:10;94.97;;;66.88;;
59970;SDS011;45825;45.434;9.116;2024-01-25T05:45:35;97.63;;;67.53;;
59970;SDS011;45825;45.434;9.116;2024-01-25T05:48:00;95.65;;;66.70;;
59970;SDS011;45825;45.434;9.116;2024-01-25T05:50:26;88.53;;;63.47;;
59970;SDS011;45825;45.434;9.116;2024-01-25T05:52:51;91.25;;;64.82;;
59970;SDS011;45825;45.434;9.116;2024-01-25T05:55:16;90.18;;;64.90;;
59970;SDS011;45825;45.434;9.116;2024-01-25T05:57:42;93.38;;;63.40;;
59970;SDS011;45825;45.434;9.116;2024-01-25T06:00:09;89.53;;;63.30;;
59970;SDS011;45825;45.434;9.116;2024-01-25T06:02:37;99.75;;;65.68;;
59970;SDS011;45825;45.434;9.116;2024-01-25T06:05:02;92.65;;;65.38;;
59970;SDS011;45825;45.434;9.116;2024-01-25T06:07:28;96.78;;;64.95;;
59970;SDS011;45825;45.434;9.116;2024-01-25T06:09:54;91.47;;;64.82;;
59970;SDS011;45825;45.434;9.116;2024-01-25T06:12:19;94.88;;;65.18;;
59970;SDS011;45825;45.434;9.116;2024-01-25T06:14:44;95.05;;;64.72;;
59970;SDS011;45825;45.434;9.116;2024-01-25T06:17:10;93.93;;;65.38;;
59970;SDS011;45825;45.434;9.116;2024-01-25T06:19:35;90.57;;;63.95;;
59970;SDS011;45825;45.434;9.116;2024-01-25T06:22:00;94.05;;;64.53;;
59970;SDS011;45825;45.434;9.116;2024-01-25T06:24:26;91.50;;;63.90;;
59970;SDS011;45825;45.434;9.116;2024-01-25T06:26:52;92.60;;;64.43;;
59970;SDS011;45825;45.434;9.116;2024-01-25T06:29:18;98.07;;;67.32;;
59970;SDS011;45825;45.434;9.116;2024-01-25T06:31:44;96.25;;;66.25;;
59970;SDS011;45825;45.434;9.116;2024-01-25T06:34:10;91.03;;;63.58;;
59970;SDS011;45825;45.434;9.116;2024-01-25T06:36:35;93.57;;;63.90;;
59970;SDS011;45825;45.434;9.116;2024-01-25T06:39:01;89.97;;;63.05;;
59970;SDS011;45825;45.434;9.116;2024-01-25T06:41:26;90.40;;;63.60;;
59970;SDS011;45825;45.434;9.116;2024-01-25T06:43:51;88.22;;;62.45;;
59970;SDS011;45825;45.434;9.116;2024-01-25T06:46:17;91.38;;;64.93;;
59970;SDS011;45825;45.434;9.116;2024-01-25T06:48:42;94.30;;;63.40;;
59970;SDS011;45825;45.434;9.116;2024-01-25T06:51:08;90.93;;;64.20;;
59970;SDS011;45825;45.434;9.116;2024-01-25T06:53:33;96.15;;;64.97;;
59970;SDS011;45825;45.434;9.116;2024-01-25T06:55:58;94.93;;;66.35;;
59970;SDS011;45825;45.434;9.116;2024-01-25T06:58:24;99.28;;;66.15;;
59970;SDS011;45825;45.434;9.116;2024-01-25T07:00:49;94.45;;;66.35;;
59970;SDS011;45825;45.434;9.116;2024-01-25T07:03:14;103.22;;;65.60;;
59970;SDS011;45825;45.434;9.116;2024-01-25T07:05:40;96.90;;;64.97;;
59970;SDS011;45825;45.434;9.116;2024-01-25T07:08:06;94.30;;;64.68;;
59970;SDS011;45825;45.434;9.116;2024-01-25T07:10:33;94.20;;;64.38;;
59970;SDS011;45825;45.434;9.116;2024-01-25T07:12:59;95.00;;;66.60;;
59970;SDS011;45825;45.434;9.116;2024-01-25T07:15:25;98.20;;;66.40;;
59970;SDS011;45825;45.434;9.116;2024-01-25T07:17:50;98.10;;;65.32;;
59970;SDS011;45825;45.434;9.116;2024-01-25T07:20:16;103.03;;;67.63;;
59970;SDS011;45825;45.434;9.116;2024-01-25T07:22:41;99.72;;;65.00;;
59970;SDS011;45825;45.434;9.116;2024-01-25T07:25:06;96.32;;;64.53;;
59970;SDS011;45825;45.434;9.116;2024-01-25T07:27:32;98.45;;;65.38;;
59970;SDS011;45825;45.434;9.116;2024-01-25T07:29:57;101.22;;;67.57;;
59970;SDS011;45825;45.434;9.116;2024-01-25T07:32:23;98.85;;;67.75;;
59970;SDS011;45825;45.434;9.116;2024-01-25T07:34:52;99.07;;;66.93;;
59970;SDS011;45825;45.434;9.116;2024-01-25T07:37:18;99.68;;;65.28;;
59970;SDS011;45825;45.434;9.116;2024-01-25T07:39:44;98.07;;;66.38;;
59970;SDS011;45825;45.434;9.116;2024-01-25T07:42:10;99.80;;;66.50;;
59970;SDS011;45825;45.434;9.116;2024-01-25T07:44:36;108.13;;;71.93;;
59970;SDS011;45825;45.434;9.116;2024-01-25T07:47:01;102.63;;;71.57;;
59970;SDS011;45825;45.434;9.116;2024-01-25T07:49:27;101.10;;;71.18;;
59970;SDS011;45825;45.434;9.116;2024-01-25T07:51:52;100.68;;;70.35;;
59970;SDS011;45825;45.434;9.116;2024-01-25T07:54:18;99.93;;;67.97;;
59970;SDS011;45825;45.434;9.116;2024-01-25T07:56:43;98.38;;;67.18;;
59970;SDS011;45825;45.434;9.116;2024-01-25T07:59:08;97.72;;;67.60;;
59970;SDS011;45825;45.434;9.116;2024-01-25T08:01:33;104.22;;;69.60;;
59970;SDS011;45825;45.434;9.116;2024-01-25T08:03:59;99.07;;;68.47;;
59970;SDS011;45825;45.434;9.116;2024-01-25T08:06:25;102.55;;;69.65;;
59970;SDS011;45825;45.434;9.116;2024-01-25T08:08:51;104.75;;;69.68;;
59970;SDS011;45825;45.434;9.116;2024-01-25T08:11:16;99.95;;;72.13;;
59970;SDS011;45825;45.434;9.116;2024-01-25T08:13:44;101.78;;;69.32;;
59970;SDS011;45825;45.434;9.116;2024-01-25T08:16:10;101.15;;;70.97;;
59970;SDS011;45825;45.434;9.116;2024-01-25T08:18:36;101.80;;;69.78;;
59970;SDS011;45825;45.434;9.116;2024-01-25T08:21:01;101.47;;;70.03;;
59970;SDS011;45825;45.434;9.116;2024-01-25T08:23:27;103.80;;;71.45;;
59970;SDS011;45825;45.434;9.116;2024-01-25T08:25:52;101.68;;;71.07;;
59970;SDS011;45825;45.434;9.116;2024-01-25T08:28:18;104.78;;;72.43;;
59970;SDS011;45825;45.434;9.116;2024-01-25T08:30:44;102.70;;;71.47;;
59970;SDS011;45825;45.434;9.116;2024-01-25T08:33:10;100.60;;;68.85;;
59970;SDS011;45825;45.434;9.116;2024-01-25T08:35:35;99.13;;;69.15;;
59970;SDS011;45825;45.434;9.116;2024-01-25T08:38:01;106.63;;;71.47;;
59970;SDS011;45825;45.434;9.116;2024-01-25T08:40:26;109.22;;;72.50;;
59970;SDS011;45825;45.434;9.116;2024-01-25T08:42:51;103.78;;;72.88;;
59970;SDS011;45825;45.434;9.116;2024-01-25T08:45:16;105.82;;;74.03;;
59970;SDS011;45825;45.434;9.116;2024-01-25T08:47:44;111.07;;;77.38;;
59970;SDS011;45825;45.434;9.116;2024-01-25T08:50:10;106.30;;;74.63;;
59970;SDS011;45825;45.434;9.116;2024-01-25T08:52:36;114.40;;;76.10;;
59970;SDS011;45825;45.434;9.116;2024-01-25T08:55:03;116.88;;;76.45;;
59970;SDS011;45825;45.434;9.116;2024-01-25T08:57:29;112.00;;;74.97;;
59970;SDS011;45825;45.434;9.116;2024-01-25T08:59:55;103.25;;;73.75;;
59970;SDS011;45825;45.434;9.116;2024-01-25T09:02:23;101.80;;;72.47;;
59970;SDS011;45825;45.434;9.116;2024-01-25T09:04:51;101.75;;;72.03;;
59970;SDS011;45825;45.434;9.116;2024-01-25T09:07:18;98.45;;;70.00;;
59970;SDS011;45825;45.434;9.116;2024-01-25T09:09:44;106.18;;;70.80;;
59970;SDS011;45825;45.434;9.116;2024-01-25T09:12:09;129.07;;;91.10;;
59970;SDS011;45825;45.434;9.116;2024-01-25T09:14:36;113.85;;;80.38;;
59970;SDS011;45825;45.434;9.116;2024-01-25T09:17:02;102.47;;;70.78;;
59970;SDS011;45825;45.434;9.116;2024-01-25T09:19:27;102.30;;;71.13;;
59970;SDS011;45825;45.434;9.116;2024-01-25T09:21:52;104.13;;;71.93;;
59970;SDS011;45825;45.434;9.116;2024-01-25T09:24:19;108.97;;;73.05;;
59970;SDS011;45825;45.434;9.116;2024-01-25T09:26:44;108.03;;;71.85;;
59970;SDS011;45825;45.434;9.116;2024-01-25T09:29:09;107.53;;;72.82;;
59970;SDS011;45825;45.434;9.116;2024-01-25T09:31:35;109.13;;;74.25;;
59970;SDS011;45825;45.434;9.116;2024-01-25T09:34:00;104.00;;;72.90;;
59970;SDS011;45825;45.434;9.116;2024-01-25T09:36:25;106.60;;;71.95;;
59970;SDS011;45825;45.434;9.116;2024-01-25T09:38:51;103.57;;;72.63;;
59970;SDS011;45825;45.434;9.116;2024-01-25T09:41:16;108.75;;;76.00;;
59970;SDS011;45825;45.434;9.116;2024-01-25T09:43:41;112.53;;;76.53;;
59970;SDS011;45825;45.434;9.116;2024-01-25T09:46:08;107.80;;;75.18;;
59970;SDS011;45825;45.434;9.116;2024-01-25T09:48:38;107.87;;;76.83;;
59970;SDS011;45825;45.434;9.116;2024-01-25T09:51:05;107.63;;;73.97;;
59970;SDS011;45825;45.434;9.116;2024-01-25T09:53:31;104.00;;;75.18;;
59970;SDS011;45825;45.434;9.116;2024-01-25T09:58:45;105.88;;;74.53;;
59970;SDS011;45825;45.434;9.116;2024-01-25T10:01:12;107.32;;;76.28;;
59970;SDS011;45825;45.434;9.116;2024-01-25T10:03:47;104.72;;;74.80;;
59970;SDS011;45825;45.434;9.116;2024-01-25T10:06:13;107.95;;;75.10;;
59970;SDS011;45825;45.434;9.116;2024-01-25T10:08:39;102.72;;;73.40;;
59970;SDS011;45825;45.434;9.116;2024-01-25T10:11:05;107.05;;;74.75;;
59970;SDS011;45825;45.434;9.116;2024-01-25T10:13:31;108.13;;;75.00;;
59970;SDS011;45825;45.434;9.116;2024-01-25T10:15:57;107.72;;;76.25;;
59970;SDS011;45825;45.434;9.116;2024-01-25T10:18:23;114.47;;;76.22;;
59970;SDS011;45825;45.434;9.116;2024-01-25T10:20:50;106.20;;;77.97;;
59970;SDS011;45825;45.434;9.116;2024-01-25T10:23:17;105.38;;;74.82;;
59970;SDS011;45825;45.434;9.116;2024-01-25T10:25:43;102.18;;;75.00;;
59970;SDS011;45825;45.434;9.116;2024-01-25T10:28:08;105.68;;;75.30;;
59970;SDS011;45825;45.434;9.116;2024-01-25T10:30:35;103.00;;;75.45;;
59970;SDS011;45825;45.434;9.116;2024-01-25T10:33:01;109.45;;;76.13;;
59970;SDS011;45825;45.434;9.116;2024-01-25T10:35:27;106.22;;;75.20;;
59970;SDS011;45825;45.434;9.116;2024-01-25T10:37:53;106.90;;;75.20;;
59970;SDS011;45825;45.434;9.116;2024-01-25T10:40:20;108.97;;;75.57;;
59970;SDS011;45825;45.434;9.116;2024-01-25T10:42:46;103.45;;;76.28;;
59970;SDS011;45825;45.434;9.116;2024-01-25T10:45:12;107.72;;;76.40;;
59970;SDS011;45825;45.434;9.116;2024-01-25T10:47:38;104.72;;;75.63;;
59970;SDS011;45825;45.434;9.116;2024-01-25T10:50:06;101.20;;;74.90;;
59970;SDS011;45825;45.434;9.116;2024-01-25T10:52:34;95.95;;;72.65;;
59970;SDS011;45825;45.434;9.116;2024-01-25T10:55:01;104.28;;;73.40;;
59970;SDS011;45825;45.434;9.116;2024-01-25T10:57:34;96.13;;;70.60;;
59970;SDS011;45825;45.434;9.116;2024-01-25T11:02:28;96.72;;;69.07;;
59970;SDS011;45825;45.434;9.116;2024-01-25T11:04:54;90.80;;;65.63;;
59970;SDS011;45825;45.434;9.116;2024-01-25T11:07:20;86.15;;;65.90;;
59970;SDS011;45825;45.434;9.116;2024-01-25T11:09:46;91.85;;;66.97;;
59970;SDS011;45825;45.434;9.116;2024-01-25T11:12:17;89.75;;;66.82;;
59970;SDS011;45825;45.434;9.116;2024-01-25T11:14:44;91.65;;;67.82;;
59970;SDS011;45825;45.434;9.116;2024-01-25T11:17:18;88.35;;;64.82;;
59970;SDS011;45825;45.434;9.116;2024-01-25T11:19:45;87.25;;;66.32;;
59970;SDS011;45825;45.434;9.116;2024-01-25T11:22:11;84.50;;;63.50;;
59970;SDS011;45825;45.434;9.116;2024-01-25T11:24:39;85.47;;;62.58;;
59970;SDS011;45825;45.434;9.116;2024-01-25T11:27:05;83.13;;;62.95;;
59970;SDS011;45825;45.434;9.116;2024-01-25T11:29:31;79.45;;;64.22;;
59970;SDS011;45825;45.434;9.116;2024-01-25T11:31:57;77.32;;;60.83;;
59970;SDS011;45825;45.434;9.116;2024-01-25T11:34:23;80.07;;;63.30;;
59970;SDS011;45825;45.434;9.116;2024-01-25T11:36:49;78.13;;;60.10;;
59970;SDS011;45825;45.434;9.116;2024-01-25T11:39:16;76.88;;;61.28;;
59970;SDS011;45825;45.434;9.116;2024-01-25T11:41:45;82.88;;;64.47;;
59970;SDS011;45825;45.434;9.116;2024-01-25T11:44:12;79.63;;;62.58;;
59970;SDS011;45825;45.434;9.116;2024-01-25T11:46:41;80.13;;;61.72;;
59970;SDS011;45825;45.434;9.116;2024-01-25T11:49:07;81.57;;;65.15;;
59970;SDS011;45825;45.434;9.116;2024-01-25T11:51:32;80.93;;;63.72;;
59970;SDS011;45825;45.434;9.116;2024-01-25T11:53:57;81.50;;;62.83;;
59970;SDS011;45825;45.434;9.116;2024-01-25T11:56:27;79.97;;;60.95;;
59970;SDS011;45825;45.434;9.116;2024-01-25T11:58:54;76.68;;;60.97;;
59970;SDS011;45825;45.434;9.116;2024-01-25T12:01:23;82.35;;;62.15;;
59970;SDS011;45825;45.434;9.116;2024-01-25T12:03:50;79.68;;;60.72;;
59970;SDS011;45825;45.434;9.116;2024-01-25T12:06:16;79.47;;;62.80;;
59970;SDS011;45825;45.434;9.116;2024-01-25T12:08:42;76.60;;;62.30;;
59970;SDS011;45825;45.434;9.116;2024-01-25T12:11:08;74.53;;;59.08;;
59970;SDS011;45825;45.434;9.116;2024-01-25T12:13:43;78.90;;;59.55;;
59970;SDS011;45825;45.434;9.116;2024-01-25T12:16:09;73.05;;;57.40;;
59970;SDS011;45825;45.434;9.116;2024-01-25T12:18:35;73.20;;;59.50;;
59970;SDS011;45825;45.434;9.116;2024-01-25T12:21:02;71.70;;;57.45;;
59970;SDS011;45825;45.434;9.116;2024-01-25T12:23:35;71.05;;;56.95;;
59970;SDS011;45825;45.434;9.116;2024-01-25T12:26:05;67.93;;;55.00;;
59970;SDS011;45825;45.434;9.116;2024-01-25T12:28:31;70.07;;;56.70;;
59970;SDS011;45825;45.434;9.116;2024-01-25T12:30:58;72.95;;;54.60;;
59970;SDS011;45825;45.434;9.116;2024-01-25T12:33:28;71.63;;;55.08;;
59970;SDS011;45825;45.434;9.116;2024-01-25T12:35:54;66.10;;;55.08;;
59970;SDS011;45825;45.434;9.116;2024-01-25T12:38:20;67.13;;;53.83;;
59970;SDS011;45825;45.434;9.116;2024-01-25T12:40:46;68.07;;;53.22;;
59970;SDS011;45825;45.434;9.116;2024-01-25T12:43:12;65.07;;;53.08;;
59970;SDS011;45825;45.434;9.116;2024-01-25T12:45:38;65.45;;;52.97;;
59970;SDS011;45825;45.434;9.116;2024-01-25T12:48:04;65.43;;;53.42;;
59970;SDS011;45825;45.434;9.116;2024-01-25T12:50:31;67.15;;;54.67;;
59970;SDS011;45825;45.434;9.116;2024-01-25T12:52:57;63.58;;;53.15;;
59970;SDS011;45825;45.434;9.116;2024-01-25T12:55:22;74.18;;;54.95;;
59970;SDS011;45825;45.434;9.116;2024-01-25T12:57:47;64.65;;;54.97;;
59970;SDS011;45825;45.434;9.116;2024-01-25T13:00:13;61.25;;;53.00;;
59970;SDS011;45825;45.434;9.116;2024-01-25T13:02:38;65.78;;;53.30;;
59970;SDS011;45825;45.434;9.116;2024-01-25T13:05:04;64.75;;;53.65;;
59970;SDS011;45825;45.434;9.116;2024-01-25T13:07:29;64.82;;;55.72;;
59970;SDS011;45825;45.434;9.116;2024-01-25T13:09:55;66.18;;;55.13;;
59970;SDS011;45825;45.434;9.116;2024-01-25T13:12:20;70.05;;;55.50;;
59970;SDS011;45825;45.434;9.116;2024-01-25T13:14:45;71.07;;;56.65;;
59970;SDS011;45825;45.434;9.116;2024-01-25T13:17:11;66.53;;;57.53;;
59970;SDS011;45825;45.434;9.116;2024-01-25T13:19:36;70.15;;;55.95;;
59970;SDS011;45825;45.434;9.116;2024-01-25T13:22:01;70.07;;;57.40;;
59970;SDS011;45825;45.434;9.116;2024-01-25T13:24:27;69.15;;;56.60;;
59970;SDS011;45825;45.434;9.116;2024-01-25T13:26:52;65.78;;;56.22;;
59970;SDS011;45825;45.434;9.116;2024-01-25T13:29:17;68.60;;;56.35;;
59970;SDS011;45825;45.434;9.116;2024-01-25T13:31:43;64.28;;;55.25;;
59970;SDS011;45825;45.434;9.116;2024-01-25T13:34:08;67.28;;;54.70;;
59970;SDS011;45825;45.434;9.116;2024-01-25T13:36:33;65.72;;;56.08;;
59970;SDS011;45825;45.434;9.116;2024-01-25T13:38:59;68.03;;;54.80;;
59970;SDS011;45825;45.434;9.116;2024-01-25T13:41:24;67.60;;;56.00;;
59970;SDS011;45825;45.434;9.116;2024-01-25T13:43:49;64.10;;;55.53;;
59970;SDS011;45825;45.434;9.116;2024-01-25T13:46:15;68.13;;;56.17;;
59970;SDS011;45825;45.434;9.116;2024-01-25T13:48:40;68.82;;;56.22;;
59970;SDS011;45825;45.434;9.116;2024-01-25T13:51:05;68.93;;;57.00;;
59970;SDS011;45825;45.434;9.116;2024-01-25T13:53:31;71.45;;;58.55;;
59970;SDS011;45825;45.434;9.116;2024-01-25T13:55:56;74.88;;;58.38;;
59970;SDS011;45825;45.434;9.116;2024-01-25T13:58:21;71.28;;;58.40;;
59970;SDS011;45825;45.434;9.116;2024-01-25T14:00:47;68.13;;;57.83;;
59970;SDS011;45825;45.434;9.116;2024-01-25T14:03:14;69.72;;;58.33;;
59970;SDS011;45825;45.434;9.116;2024-01-25T14:05:41;66.57;;;57.20;;
59970;SDS011;45825;45.434;9.116;2024-01-25T14:08:07;72.25;;;58.60;;
59970;SDS011;45825;45.434;9.116;2024-01-25T14:10:32;70.88;;;59.08;;
59970;SDS011;45825;45.434;9.116;2024-01-25T14:12:59;69.97;;;58.25;;
59970;SDS011;45825;45.434;9.116;2024-01-25T14:15:25;75.78;;;60.88;;